F
Liste des engagé(e)s
Classement
PDF
   
         
   
 
Pos N° Nom Prénom Pays Temps Ecart Pl. Cat. Pl. Sexe Club
1 277 COUTAND Benjamin 00:37:06 1 SE 1 M Tri Alp
2 278 MIGUEL Vincent 00:38:25 01:19 2 SE 2 M Tri du A
3 273 RUF Fabien 00:42:39 05:33 3 SE 3 M
4 224 RAJAT Christophe 00:42:46 05:40 1 V1 4 M
5 200 GHESQUIERE Nicolas 00:42:49 05:43 4 SE 5 M
6 248 HUCTEAU Gael 00:43:14 06:08 2 V1 6 M GRESICOURANT LE VERSOUD
7 217 SCISCIOLI Roger 00:43:24 06:18 5 SE 7 M US VIZILLE
8 269 DERRIEN Franck 00:44:15 07:09 6 SE 8 M ESAGAMI
9 298 CICUT Martin 00:44:23 07:17 1 CA 9 M
10 250 CHENAVIER Jerome 00:45:33 08:27 3 V1 10 M RAIDLIGHT/MIELTONIA
11 242 BOURGUIGNON Clement 00:45:52 08:46 7 SE 11 M
12 290 MASCIAVE Christophe 00:46:03 08:57 4 V1 12 M RIA CHAMPAGNIER
13 238 GARCIA-BERTHOD Alain 00:46:26 09:20 1 V2 13 M URIAGE CAP
14 289 LANGLOIS Eric 00:46:38 09:32 8 SE 14 M
15 279 PAYET J-Roland 00:46:46 09:40 5 V1 15 M
16 222 TOSTAIN Philippe 00:47:46 10:40 2 CA 16 M
17 213 COTTAZ Patrick 00:47:51 10:45 1 ES 17 M
18 228 LAPOUGE Vincent 00:48:11 11:05 6 V1 18 M ASPARUN MEYLAN
19 283 FONT Nicolas 00:48:18 11:12 7 V1 19 M
20 287 PETITEAU Clement 00:48:33 11:27 3 CA 20 M Uriage Running
21 253 VAN MELLE Jeremie 00:48:40 11:34 9 SE 21 M
22 231 SCARFO Jean 00:48:43 11:37 2 V2 22 M
23 274 TARAVEL Pierre Adrien 00:49:08 12:02 10 SE 23 M Team AVICAR
24 280 CARRE Laurent 00:51:29 14:23 8 V1 24 M
25 259 LEFEVRE Charles 00:51:37 14:31 4 CA 25 M
26 201 CARTIER-MILLON Vanessa 00:51:48 14:42 1 SE 1 F
27 226 KLEIN Nathalie 00:52:02 14:56 1 V1 2 F ASPARUN MEYLAN
28 247 CROSWAITHE Jolyon 00:52:57 15:51 1 V3 26 M ESAGAMI
29 244 KAFI Gery 00:52:58 15:52 2 ES 27 M ESAGAMI
30 207 FOVEAU Nicolas 00:53:27 16:21 11 SE 28 M
31 260 GUERIAUD Florian 00:53:39 16:33 12 SE 29 M
32 281 MARTIN Remy 00:53:58 16:52 13 SE 30 M
33 218 BALDET Maurice 00:54:01 16:55 3 V2 31 M
34 232 DANIEL Aldebert 00:54:25 17:19 4 V2 32 M
35 299 BROCARD Emilie 00:54:41 17:35 2 SE 3 F
36 251 DUBOUCHET Patrick 00:54:48 17:42 2 V3 33 M ASAIX
37 212 GIMER Olivier 00:55:24 18:18 5 V2 34 M
38 254 GONTIER Cyril 00:55:27 18:21 14 SE 35 M
39 255 COEUR Stephane 00:55:35 18:29 15 SE 36 M
40 243 GRAFTIAUX Alix 00:55:39 18:33 3 SE 4 F ESAGAMI
41 272 EVRARD Karine 00:55:45 18:39 2 V1 5 F
42 236 SEILER Hugo 00:56:13 19:07 16 SE 37 M
43 219 ABADO Gilles 00:56:25 19:19 1 V4 38 M ABADO
44 234 MATHAIS Alain 00:56:28 19:22 6 V2 39 M
45 225 BERNARD BRUNEL Lola 00:56:28 19:22 4 SE 6 F ASPARUN MEYLAN
46 235 DEMARTINO Irvann 00:56:34 19:28 17 SE 40 M
47 245 LEPAULLE Bruno 00:57:29 20:23 3 V3 41 M ESAGAMI
48 246 LEPAULLE Nicolas 00:57:30 20:24 3 ES 42 M ESAGAMI
49 276 ROUGIER Pascal 00:57:34 20:28 7 V2 43 M
50 249 MARTEL Vanessa 00:58:09 21:03 5 SE 7 F COURIR a SEYSSINS-SEYSSINET
51 223 SANSON Pascal 00:58:13 21:07 8 V2 44 M
52 205 PARENT Cedric 00:59:17 22:11 9 V1 45 M
53 204 NICOLAIDIS Laurent 00:59:53 22:47 10 V1 46 M NICOLAIDIS
54 282 MARTIN Patrick 01:00:02 22:56 9 V2 47 M
55 227 LAMARQUE Stephanie 01:00:04 22:58 6 SE 8 F ASPARUN MEYLAN
56 284 DELANGE Florence 01:00:45 23:39 1 V2 9 F
57 271 CAQUAS Julie 01:00:49 23:43 7 SE 10 F ASPTT Grenoble / Belledonne Running
58 230 QUEMA Emilie 01:00:53 23:47 8 SE 11 F ASPARUN MEYLAN
59 265 BAPTISTE Amandine 01:00:53 23:47 9 SE 12 F COURIR a SEYSSINS-SEYSSINET
60 209 MERRIEUX Xavier 01:01:23 24:17 11 V1 48 M ASPARUN MEYLAN
61 215 CHARPIN Alexandra 01:02:22 25:16 3 V1 13 F
62 239 DAVRIL Jim 01:02:26 25:20 12 V1 49 M ACP CROLLES
63 233 ALDEBERT Frederique 01:02:30 25:24 2 V2 14 F ALDEBERT DANIEL
64 214 NISSEN Elke 01:02:44 25:38 4 V1 15 F
65 266 DEROUX Alain 01:02:51 25:45 2 V4 50 M
66 221 TROUSSIER Vanessa 01:03:32 26:26 5 V1 16 F
67 294 ROUVE Helene 01:03:54 26:48 6 V1 17 F ACP CROLLES
68 296 MARTINOT Segolene 01:04:37 27:31 18 SE 51 M ACP CROLLES
69 267 DEROUX Marie-France 01:05:11 28:05 1 V3 18 F
70 220 ABADO Celine 01:05:15 28:09 7 V1 19 F ABADO
71 268 DANG Sabine 01:05:30 28:24 8 V1 20 F Grasi Athla
72 208 MARTIN Romuald 01:05:39 28:33 19 SE 52 M
73 293 BOUR Frederic 01:05:48 28:42 13 V1 53 M
74 270 JUDARD Vincent 01:05:57 28:51 14 V1 54 M
75 257 MORAUX Pascal 01:06:01 28:55 15 V1 55 M
76 263 CALMIN Lucie 01:06:41 29:35 10 SE 21 F
77 292 LALLEMAND Marie 01:06:43 29:37 11 SE 22 F
78 291 GIBRAT Sarah 01:06:43 29:37 12 SE 23 F
79 275 DE VULPIAN Melanie 01:06:53 29:47 9 V1 24 F
80 285 JOURNET Yvan 01:07:14 30:08 10 V2 56 M Brie sport
81 297 CICUT Geraldine 01:07:45 30:39 3 V2 25 F
82 261 GIRAUD Aurore 01:07:47 30:41 13 SE 26 F COURIR a GRENOBLE
83 211 MOREL Alexandra 01:08:21 31:15 10 V1 27 F FLASHDOG
84 241 PIU Claude 01:08:45 31:39 4 V2 28 F LESPIU
85 237 PIU Isaline 01:09:17 32:11 14 SE 29 F
86 295 HERNANDEZ Karine 01:09:27 32:21 11 V1 30 F ACP CROLLES
87 240 TAS Noureddine 01:09:28 32:22 20 SE 57 M
88 288 GAUTHIER MANUEL Patrick 01:11:13 34:07 11 V2 58 M
89 262 MORSE John 01:12:10 35:04 4 V3 59 M
90 258 SCHIAVON Claire 01:12:34 35:28 15 SE 31 F
91 264 FAURE Valerie 01:13:42 36:36 16 SE 32 F GReSIATHLe
92 252 GAMELIN Elise 01:15:45 38:39 1 CA 33 F
93 203 NICOLAIDIS Sarah 01:16:18 39:12 12 V1 34 F NICOLAIDIS
94 286 BAUDEQUIN Beatrice 01:16:58 39:52 5 V2 35 F
95 206 RAFFIN Caroline 01:21:10 44:04 17 SE 36 F GRESICOURANT LE VERSOUD
96 300 RENAULT Emmanuelle 01:23:19 46:13 13 V1 37 F
97 256 DI-PIETRANGELO Celine 01:26:35 49:29 14 V1 38 F BELDONNE RUNNING
98 202 GIORLANDO Roxanne 01:30:43 53:37 18 SE 39 F
  CROSS DE TENCIN 9KM - PERF EVENT 2018
 
Nombre ou lettres (3 minimum)
Classement    
Filtre :
Rang :